createdAt,value
2018-09-03T09:33:32.760Z,14.77
2018-09-03T09:36:01.643Z,21.20
2018-09-03T09:38:30.833Z,15.53
2018-09-03T09:40:59.308Z,15.57
2018-09-03T09:43:27.774Z,16.33
2018-09-03T09:45:57.152Z,12.17
2018-09-03T09:48:26.373Z,16.33
2018-09-03T09:50:54.880Z,11.77
2018-09-03T09:53:27.654Z,10.60
2018-09-03T09:55:56.587Z,16.77
2018-09-03T09:58:31.047Z,14.20
2018-09-03T10:01:05.217Z,11.17
2018-09-03T10:03:34.502Z,10.63
2018-09-03T10:06:03.430Z,14.93
2018-09-03T10:08:45.113Z,15.47
2018-09-03T10:11:14.037Z,18.30
2018-09-03T10:13:42.975Z,14.03
2018-09-03T10:16:12.422Z,17.43
2018-09-03T10:18:41.496Z,19.23
2018-09-03T10:21:10.056Z,16.70
2018-09-03T10:23:43.691Z,17.43
2018-09-03T10:26:12.606Z,15.33
2018-09-03T10:28:45.753Z,20.53
2018-09-03T10:31:30.781Z,14.37
2018-09-03T10:34:00.060Z,15.60
2018-09-03T10:36:28.758Z,16.83
2018-09-03T10:38:57.257Z,18.60
2018-09-03T10:41:26.221Z,20.87
2018-09-03T10:43:55.229Z,20.20
2018-09-03T10:46:24.184Z,21.53
2018-09-03T10:49:05.105Z,19.30
2018-09-03T10:51:34.053Z,19.60
2018-09-03T10:54:03.046Z,20.43
2018-09-03T10:56:31.857Z,17.30
2018-09-03T10:59:13.503Z,17.67
2018-09-03T11:01:42.013Z,18.13
2018-09-03T11:04:10.659Z,19.73
2018-09-03T11:06:39.817Z,16.30
2018-09-03T11:09:12.527Z,15.80
2018-09-03T11:11:41.570Z,19.23
2018-09-03T11:14:16.817Z,17.77
2018-09-03T11:16:45.315Z,21.73
2018-09-03T11:19:17.872Z,18.73
2018-09-03T11:21:46.513Z,16.77
2018-09-03T11:24:19.235Z,18.93
2018-09-03T11:26:47.744Z,16.20
2018-09-03T11:29:22.013Z,17.53
2018-09-03T11:31:50.506Z,16.93
2018-09-03T11:34:23.326Z,17.00
2018-09-03T11:36:52.103Z,18.13
2018-09-03T11:39:33.516Z,18.23
2018-09-03T11:42:03.314Z,16.53
2018-09-03T11:44:31.861Z,16.97
2018-09-03T11:47:00.976Z,14.90
2018-09-03T11:49:31.709Z,16.13
2018-09-03T11:52:00.693Z,18.50
2018-09-03T11:54:32.406Z,15.83
2018-09-03T11:57:01.806Z,19.13
2018-09-03T11:59:35.113Z,19.13
2018-09-03T12:02:04.756Z,21.40
2018-09-03T12:04:46.209Z,17.47
2018-09-03T12:07:14.798Z,17.57
2018-09-03T12:09:43.389Z,20.13
2018-09-03T12:12:12.861Z,16.87
2018-09-03T12:14:43.713Z,19.00
2018-09-03T12:17:12.355Z,22.40
2018-09-03T12:19:45.154Z,19.87
2018-09-03T12:22:13.762Z,18.83
2018-09-03T12:24:55.041Z,21.60
2018-09-03T12:27:24.242Z,18.73
2018-09-03T12:29:53.269Z,24.23
2018-09-03T12:32:22.290Z,20.43
2018-09-03T12:34:54.390Z,21.60
2018-09-03T12:37:22.916Z,19.10
2018-09-03T12:40:03.637Z,18.30
2018-09-03T12:42:32.649Z,21.23
2018-09-03T12:45:01.707Z,20.63
2018-09-03T12:47:30.401Z,21.47
2018-09-03T12:50:02.837Z,22.80
2018-09-03T12:52:31.785Z,16.30
2018-09-03T12:55:04.374Z,23.70
2018-09-03T12:57:33.737Z,22.80
2018-09-03T13:00:07.639Z,23.50
2018-09-03T13:02:39.414Z,20.93
2018-09-03T13:05:18.330Z,20.63
2018-09-03T13:07:46.856Z,25.60
2018-09-03T13:10:15.403Z,22.87
2018-09-03T13:12:44.907Z,25.27
2018-09-03T13:15:17.524Z,26.47
2018-09-03T13:17:46.053Z,25.73
2018-09-03T13:20:27.723Z,23.53
2018-09-03T13:22:56.249Z,20.87
2018-09-03T13:25:25.275Z,24.70
2018-09-03T13:27:54.603Z,23.00
2018-09-03T13:30:23.168Z,22.93
2018-09-03T13:32:52.174Z,19.97
2018-09-03T13:35:34.174Z,21.57
2018-09-03T13:38:03.167Z,21.27
2018-09-03T13:40:32.621Z,23.00
2018-09-03T13:43:01.598Z,21.90
2018-09-03T13:45:30.198Z,22.17
2018-09-03T13:47:58.721Z,21.80
2018-09-03T13:50:31.629Z,21.20
2018-09-03T13:53:00.713Z,23.63
2018-09-03T13:55:36.447Z,23.87
2018-09-03T13:58:08.331Z,18.83
2018-09-03T14:00:38.331Z,18.30
2018-09-03T14:03:07.527Z,18.63
2018-09-03T14:05:49.568Z,16.77
2018-09-03T14:08:19.903Z,18.97
2018-09-03T14:10:48.865Z,19.97
2018-09-03T14:13:18.197Z,18.40
2018-09-03T14:15:47.039Z,17.53
2018-09-03T14:18:16.126Z,21.63
2018-09-03T14:20:47.628Z,19.50
2018-09-03T14:23:16.790Z,19.30
2018-09-03T14:25:50.729Z,20.00
2018-09-03T14:28:19.709Z,20.63
2018-09-03T14:30:55.523Z,23.73
2018-09-03T14:33:24.025Z,20.97
2018-09-03T14:35:57.521Z,25.03
2018-09-03T14:38:26.465Z,19.27
2018-09-03T14:41:00.599Z,21.53
2018-09-03T14:43:29.834Z,25.97
2018-09-03T14:46:02.689Z,21.57
2018-09-03T14:48:31.214Z,21.57
2018-09-03T14:51:03.880Z,18.40
2018-09-03T14:53:33.341Z,30.93
2018-09-03T14:56:07.524Z,22.67
2018-09-03T14:58:36.084Z,26.07
2018-09-03T15:01:08.998Z,27.33
2018-09-03T15:03:38.546Z,21.73
2018-09-03T15:06:14.283Z,27.23
2018-09-03T15:08:42.775Z,25.57
2018-09-03T15:11:15.734Z,25.90
2018-09-03T15:13:44.802Z,22.07
2018-09-03T15:16:19.708Z,26.00
2018-09-03T15:18:48.859Z,27.07
2018-09-03T15:21:22.019Z,24.40
2018-09-03T15:23:51.341Z,27.10
2018-09-03T15:26:23.978Z,27.83
2018-09-03T15:28:53.292Z,21.97
2018-09-03T15:31:26.314Z,26.20
2018-09-03T15:33:55.286Z,26.73
2018-09-03T15:36:36.359Z,24.57
2018-09-03T15:39:09.605Z,25.20
2018-09-03T15:41:38.594Z,27.00
2018-09-03T15:44:07.162Z,25.20
2018-09-03T15:46:36.429Z,23.93
2018-09-03T15:49:05.475Z,31.97
2018-09-03T15:51:37.511Z,26.53
2018-09-03T15:54:06.872Z,24.73
2018-09-03T15:56:38.987Z,31.67
2018-09-03T15:59:07.530Z,30.13
2018-09-03T16:01:48.812Z,28.80
2018-09-03T16:04:17.780Z,29.23
2018-09-03T16:06:46.809Z,30.10
2018-09-03T16:09:15.868Z,27.20
2018-09-03T16:11:47.628Z,27.30
2018-09-03T16:14:17.869Z,31.00
2018-09-03T16:16:49.935Z,24.53
2018-09-03T16:19:18.457Z,28.27
2018-09-03T16:22:01.027Z,32.13
2018-09-03T16:24:29.985Z,31.93
2018-09-03T16:26:58.906Z,27.37
2018-09-03T16:29:27.882Z,29.17
2018-09-03T16:31:57.290Z,37.13
2018-09-03T16:34:26.317Z,30.80
2018-09-03T16:36:59.420Z,28.10
2018-09-03T16:39:28.208Z,29.93
2018-09-03T16:42:01.890Z,30.87
2018-09-03T16:44:30.862Z,27.07
2018-09-03T16:47:04.758Z,28.17
2018-09-03T16:49:33.268Z,30.50
2018-09-03T16:54:35.683Z,34.63
2018-09-03T16:57:04.209Z,32.23
2018-09-03T16:59:32.731Z,30.20
2018-09-03T17:02:02.003Z,33.97
2018-09-03T17:04:31.054Z,30.33
2018-09-03T17:06:59.654Z,34.73
2018-09-03T17:09:28.905Z,28.83
2018-09-03T17:12:02.586Z,35.60
2018-09-03T17:14:31.522Z,34.80
2018-09-03T17:17:00.066Z,28.67
2018-09-03T17:19:29.038Z,33.00
2018-09-03T17:21:58.418Z,34.43
2018-09-03T17:24:27.425Z,28.73
2018-09-03T17:26:55.929Z,32.57
2018-09-03T17:29:26.134Z,38.70
2018-09-03T17:31:55.126Z,28.20
2018-09-03T17:34:28.030Z,30.70
2018-09-03T17:36:57.464Z,29.30
2018-09-03T17:39:30.422Z,28.53
2018-09-03T17:41:59.378Z,31.93
2018-09-03T17:44:33.019Z,31.47
2018-09-03T17:47:01.719Z,30.30
2018-09-03T17:49:35.464Z,35.70
2018-09-03T17:52:04.765Z,32.50
2018-09-03T17:54:37.826Z,33.07
2018-09-03T17:57:06.907Z,32.43
2018-09-03T17:59:40.376Z,30.43
2018-09-03T18:02:08.949Z,34.40
2018-09-03T18:04:37.518Z,33.83
2018-09-03T18:07:06.381Z,30.93
2018-09-03T18:09:35.361Z,33.73
2018-09-03T18:12:03.902Z,33.60
2018-09-03T18:14:33.496Z,32.70
2018-09-03T18:17:02.487Z,34.97
2018-09-03T18:19:31.479Z,35.37
2018-09-03T18:22:00.779Z,35.73
2018-09-03T18:24:29.881Z,41.87
2018-09-03T18:27:01.750Z,36.67
2018-09-03T18:29:30.538Z,40.63
2018-09-03T18:32:04.308Z,35.27
2018-09-03T18:34:33.294Z,40.27
2018-09-03T18:37:08.339Z,41.10
2018-09-03T18:39:37.254Z,37.37
2018-09-03T18:42:14.195Z,39.90
2018-09-03T18:44:43.114Z,38.50
2018-09-03T18:47:13.610Z,40.77
2018-09-03T18:49:42.574Z,37.40
2018-09-03T18:52:24.310Z,37.37
2018-09-03T18:54:53.109Z,39.03
2018-09-03T18:57:22.463Z,40.93
2018-09-03T18:59:51.569Z,39.73
2018-09-03T19:02:20.126Z,40.23
2018-09-03T19:04:49.749Z,43.53
2018-09-03T19:07:31.116Z,37.10
2018-09-03T19:09:59.902Z,38.83
2018-09-03T19:12:28.425Z,40.13
2018-09-03T19:14:56.958Z,43.67
2018-09-03T19:17:26.709Z,39.63
2018-09-03T19:19:55.784Z,40.27
2018-09-03T19:22:28.426Z,40.50
2018-09-03T19:24:57.257Z,39.83
2018-09-03T19:27:31.466Z,41.23
2018-09-03T19:30:00.099Z,39.00
2018-09-03T19:32:33.366Z,41.83
2018-09-03T19:35:02.333Z,38.33
2018-09-03T19:37:36.163Z,40.40
2018-09-03T19:40:05.020Z,36.87
2018-09-03T19:42:38.632Z,40.53
2018-09-03T19:45:07.148Z,45.13
2018-09-03T19:47:48.880Z,41.50
2018-09-03T19:50:17.405Z,38.43
2018-09-03T19:52:46.665Z,39.43
2018-09-03T19:55:15.911Z,38.93
2018-09-03T19:57:48.490Z,43.83
2018-09-03T20:00:17.299Z,41.13
2018-09-03T20:02:49.020Z,41.83
2018-09-03T20:05:18.029Z,51.93
2018-09-03T20:07:51.525Z,46.53
2018-09-03T20:10:20.745Z,50.53
2018-09-03T20:12:55.132Z,48.20
2018-09-03T20:15:25.329Z,57.90
2018-09-03T20:18:07.228Z,43.03
2018-09-03T20:20:36.338Z,46.30
2018-09-03T20:23:05.886Z,46.20
2018-09-03T20:25:34.805Z,46.87
2018-09-03T20:28:03.374Z,45.43
2018-09-03T20:30:32.195Z,45.03
2018-09-03T20:33:05.896Z,49.07
2018-09-03T20:35:35.126Z,45.30
2018-09-03T20:38:16.464Z,49.20
2018-09-03T20:40:45.297Z,47.77
2018-09-03T20:43:14.605Z,43.43
2018-09-03T20:45:43.319Z,46.73
2018-09-03T20:48:14.329Z,44.67
2018-09-03T20:50:42.853Z,48.37
2018-09-03T20:53:15.913Z,51.30
2018-09-03T20:55:45.478Z,48.93
2018-09-03T20:58:27.873Z,50.27
2018-09-03T21:00:57.258Z,52.53
2018-09-03T21:03:25.753Z,54.87
2018-09-03T21:05:54.784Z,53.67
2018-09-03T21:08:24.463Z,51.23
2018-09-03T21:10:53.408Z,55.67
2018-09-03T21:13:34.552Z,58.40
2018-09-03T21:16:04.806Z,50.10
2018-09-03T21:18:33.757Z,52.97
2018-09-03T21:21:02.256Z,60.90
2018-09-03T21:23:31.795Z,53.90
2018-09-03T21:26:00.753Z,58.73
2018-09-03T21:28:42.094Z,55.50
2018-09-03T21:31:11.212Z,60.50
2018-09-03T21:33:40.127Z,56.60
2018-09-03T21:36:08.623Z,60.03
2018-09-03T21:38:39.344Z,61.67
2018-09-03T21:41:08.284Z,61.13
2018-09-03T21:43:49.963Z,60.43
2018-09-03T21:46:19.174Z,67.07
2018-09-03T21:48:48.104Z,58.67
2018-09-03T21:51:17.047Z,55.73
2018-09-03T21:53:47.708Z,62.97
2018-09-03T21:56:16.615Z,61.00
2018-09-03T21:58:58.615Z,64.23
2018-09-03T22:01:27.406Z,57.13
2018-09-03T22:03:56.358Z,64.97
2018-09-03T22:06:25.316Z,65.73
2018-09-03T22:08:54.758Z,69.37
2018-09-03T22:11:23.680Z,71.63
2018-09-03T22:13:59.461Z,66.97
2018-09-03T22:16:28.196Z,64.00
2018-09-03T22:19:09.303Z,62.73
2018-09-03T22:21:38.494Z,68.03
2018-09-03T22:24:06.989Z,67.23
2018-09-03T22:26:35.938Z,66.97
2018-09-03T22:29:07.424Z,72.07
2018-09-03T22:31:35.907Z,62.90
2018-09-03T22:34:10.001Z,67.17
2018-09-03T22:36:38.559Z,70.23
2018-09-03T22:39:12.388Z,69.37
2018-09-03T22:41:41.269Z,67.27
2018-09-03T22:44:14.395Z,66.87
2018-09-03T22:46:43.344Z,69.10
2018-09-03T22:49:16.702Z,70.47
2018-09-03T22:51:45.639Z,69.77
2018-09-03T22:54:19.193Z,62.83
2018-09-03T22:56:48.380Z,68.20
2018-09-03T22:59:21.355Z,65.17
2018-09-03T23:01:50.266Z,68.67
2018-09-03T23:04:26.439Z,67.40
2018-09-03T23:06:55.340Z,69.43
2018-09-03T23:09:36.548Z,71.67
2018-09-03T23:12:05.033Z,73.97
2018-09-03T23:14:33.960Z,66.80
2018-09-03T23:17:03.272Z,71.13
2018-09-03T23:19:32.064Z,72.73
2018-09-03T23:22:01.029Z,70.03
2018-09-03T23:24:42.492Z,65.63
2018-09-03T23:27:11.403Z,69.63
2018-09-03T23:29:40.191Z,72.37
2018-09-03T23:32:09.135Z,66.73
2018-09-03T23:34:41.100Z,71.20
2018-09-03T23:37:09.559Z,67.93
2018-09-03T23:39:51.140Z,72.03
2018-09-03T23:42:20.371Z,73.13
2018-09-03T23:44:49.335Z,68.40
2018-09-03T23:47:18.302Z,72.83
2018-09-03T23:49:47.533Z,69.50
2018-09-03T23:52:16.457Z,71.63
2018-09-03T23:54:49.243Z,71.97
2018-09-03T23:57:18.439Z,74.67
2018-09-03T23:59:51.791Z,69.00
